Earlington, Kentucky
Current Conditions -  °F | °C
As of 12:15 PM on Thursday 29 Jan 2015 (Local Time) from K2I0 Reporting Station
Overcast Overcast  
Wind Chill: 44°   Ceiling: 3300
Heat Index: 49°   Visibility: 10mi
Dew Point: 40°   Wind: 16mph
Humidity: 70%   Direction: 310°NW
Pressure: 30.06"   Gusts: 26mph
Location:  37.27°N, 87.51°W
Report Text: K2I0 291815Z AUTO 31014G23KT 10SM SCT026 OVC033 10/04 A3006 RMK AO2 T00970044
Loading
Personal Weather Stations






























Interactive Weather Map New forecast layout! Learn more

10-Day Weather Forecast

Advertisements
Track Severe Weather on mobile